Time;durP1;ratioP1;P1;durP2;ratioP2;P2;SDS_P1;SDS_P2;PMS_P1;PMS_P2;Temp;Humidity;BMP_temperature;BMP_pressure;BME280_temperature;BME280_humidity;BME280_pressure;Samples;Min_cycle;Max_cycle;Signal;HPM_P1;HPM_P2
2022/03/05 00:00:40;;;;;;;13.93;12.93;;;1.50;5.00;;;;;;4956903;28;20267;-68
2022/03/05 00:03:06;;;;;;;14.05;13.25;;;1.50;5.00;;;;;;4956777;28;20269;-70
2022/03/05 00:05:31;;;;;;;15.50;14.50;;;1.50;5.00;;;;;;4955500;29;20294;-71
2022/03/05 00:07:57;;;;;;;14.77;13.57;;;1.40;5.00;;;;;;4955533;28;20476;-69
2022/03/05 00:10:23;;;;;;;16.13;14.97;;;1.40;5.00;;;;;;4956399;28;20250;-68
2022/03/05 00:12:49;;;;;;;13.30;12.70;;;1.40;4.90;;;;;;4956619;28;20227;-69
2022/03/05 00:15:16;;;;;;;15.10;14.10;;;1.40;4.90;;;;;;4955147;29;20581;-69
2022/03/05 00:17:42;;;;;;;15.60;14.60;;;1.40;4.90;;;;;;4956134;28;20189;-69
2022/03/05 00:20:08;;;;;;;15.93;14.82;;;1.40;4.90;;;;;;4956445;28;20275;-71
2022/03/05 00:22:34;;;;;;;15.60;14.40;;;1.30;5.20;;;;;;4956232;28;20314;-72
2022/03/05 00:24:59;;;;;;;14.73;13.93;;;1.40;5.70;;;;;;4956608;28;20317;-70
2022/03/05 00:27:25;;;;;;;15.73;14.43;;;1.30;5.40;;;;;;4956099;28;20209;-69
2022/03/05 00:29:52;;;;;;;14.33;13.53;;;1.30;5.60;;;;;;4956392;28;20181;-70
2022/03/05 00:32:18;;;;;;;15.95;14.80;;;1.30;5.60;;;;;;4955480;28;20408;-69
2022/03/05 00:34:43;;;;;;;16.00;14.90;;;1.30;5.80;;;;;;4956139;28;20219;-69
2022/03/05 00:37:10;;;;;;;15.90;14.77;;;1.30;5.80;;;;;;4955782;28;20668;-70
2022/03/05 00:39:36;;;;;;;14.70;13.70;;;1.20;5.90;;;;;;4956184;28;20177;-69
2022/03/05 00:42:02;;;;;;;15.80;14.60;;;1.20;6.00;;;;;;4955995;28;20241;-70
2022/03/05 00:44:28;;;;;;;14.98;14.07;;;1.20;6.10;;;;;;4954587;28;20251;-70
2022/03/05 00:46:54;;;;;;;15.23;14.30;;;1.10;6.10;;;;;;4955621;28;20670;-69
2022/03/05 00:49:20;;;;;;;14.82;13.93;;;1.20;6.20;;;;;;4955411;28;20176;-69
2022/03/05 00:51:45;;;;;;;15.70;14.53;;;1.20;6.20;;;;;;4954674;29;20187;-71
2022/03/05 00:54:11;;;;;;;15.27;14.20;;;1.10;6.20;;;;;;4955824;28;20199;-71
2022/03/05 00:56:36;;;;;;;15.03;13.93;;;1.10;6.40;;;;;;4955581;28;20175;-70
2022/03/05 00:59:02;;;;;;;16.27;15.23;;;1.10;6.30;;;;;;4955583;28;20708;-70
2022/03/05 01:01:27;;;;;;;16.60;15.30;;;1.10;6.20;;;;;;4955526;28;20639;-70
2022/03/05 01:03:53;;;;;;;14.23;13.37;;;1.00;6.40;;;;;;4955929;28;20184;-69
2022/03/05 01:06:19;;;;;;;14.70;14.00;;;1.00;6.40;;;;;;4954552;28;20253;-69
2022/03/05 01:08:44;;;;;;;15.67;14.67;;;1.00;6.60;;;;;;4955325;28;20179;-70
2022/03/05 01:11:15;;;;;;;16.60;15.10;;;0.90;6.70;;;;;;4955581;28;20178;-71
2022/03/05 01:13:41;;;;;;;16.05;14.93;;;0.90;6.80;;;;;;4955540;28;20193;-69
2022/03/05 01:16:06;;;;;;;16.13;15.03;;;0.90;6.90;;;;;;4955257;28;20646;-69
2022/03/05 01:18:32;;;;;;;16.27;15.20;;;0.90;7.20;;;;;;4954629;28;20429;-69
2022/03/05 01:20:57;;;;;;;14.87;14.07;;;0.90;6.50;;;;;;4955339;28;20172;-68
2022/03/05 01:23:23;;;;;;;15.40;14.33;;;0.90;6.80;;;;;;4955402;28;20176;-69
2022/03/05 01:25:48;;;;;;;16.13;15.03;;;0.90;6.70;;;;;;4955741;28;20247;-71
2022/03/05 01:28:14;;;;;;;14.47;13.70;;;0.80;6.80;;;;;;4954946;28;20206;-71
2022/03/05 01:30:39;;;;;;;15.37;14.37;;;0.70;7.00;;;;;;4954085;28;20179;-70
2022/03/05 01:33:05;;;;;;;14.63;13.73;;;0.70;7.00;;;;;;4954930;28;20191;-70
2022/03/05 01:35:30;;;;;;;15.00;14.20;;;0.70;7.10;;;;;;4954990;28;20210;-69
2022/03/05 01:37:56;;;;;;;15.27;13.93;;;0.70;7.30;;;;;;4954843;28;20183;-71
2022/03/05 01:40:22;;;;;;;14.97;14.07;;;0.60;7.20;;;;;;4954658;28;20173;-70
2022/03/05 01:42:48;;;;;;;14.38;13.57;;;0.50;7.50;;;;;;4953913;28;20182;-69
2022/03/05 01:45:14;;;;;;;15.60;14.40;;;0.50;7.40;;;;;;4954850;28;20206;-68
2022/03/05 01:47:40;;;;;;;15.43;14.30;;;0.50;7.60;;;;;;4954357;28;20469;-69
2022/03/05 01:50:08;;;;;;;15.32;14.27;;;0.50;7.50;;;;;;4954731;28;20237;-68
2022/03/05 01:52:33;;;;;;;15.68;14.57;;;0.40;7.60;;;;;;4952049;28;20266;-69
2022/03/05 01:54:59;;;;;;;14.70;13.70;;;0.40;7.70;;;;;;4954066;28;20307;-69
2022/03/05 01:57:25;;;;;;;14.70;13.70;;;0.50;7.60;;;;;;4954584;28;20532;-69
2022/03/05 01:59:50;;;;;;;15.43;14.43;;;0.40;7.70;;;;;;4954646;28;20691;-71
2022/03/05 02:02:17;;;;;;;16.97;15.40;;;0.50;7.80;;;;;;4954550;28;20223;-69
2022/03/05 02:04:43;;;;;;;15.57;14.70;;;0.50;7.50;;;;;;4954434;28;20206;-71
2022/03/05 02:07:09;;;;;;;16.80;15.60;;;0.50;7.60;;;;;;4954017;28;20214;-68
2022/03/05 02:09:35;;;;;;;15.90;14.77;;;0.50;7.70;;;;;;4954482;28;20270;-70
2022/03/05 02:12:00;;;;;;;15.63;14.00;;;0.40;7.70;;;;;;4954492;28;20439;-69
2022/03/05 02:14:26;;;;;;;16.07;14.97;;;0.20;8.00;;;;;;4953872;28;20194;-68
2022/03/05 02:16:51;;;;;;;16.17;14.87;;;0.20;8.20;;;;;;4953891;28;20189;-69
2022/03/05 02:19:17;;;;;;;14.40;13.60;;;0.10;8.50;;;;;;4953997;28;20214;-69
2022/03/05 02:21:46;;;;;;;16.50;15.37;;;0.00;8.40;;;;;;4954097;28;20187;-69
2022/03/05 02:24:12;;;;;;;14.40;13.45;;;-0.10;8.80;;;;;;4954069;28;20197;-69
2022/03/05 02:26:37;;;;;;;15.52;14.45;;;-0.10;8.80;;;;;;4953614;28;20252;-69
2022/03/05 02:29:03;;;;;;;15.67;14.70;;;-0.20;8.80;;;;;;4953744;28;20588;-69
2022/03/05 02:31:29;;;;;;;16.70;15.20;;;-0.20;8.90;;;;;;4953783;28;20180;-68
2022/03/05 02:33:55;;;;;;;15.50;14.60;;;-0.30;9.30;;;;;;4947890;28;20200;-69
2022/03/05 02:36:23;;;;;;;14.77;13.82;;;-0.40;9.40;;;;;;4945091;28;20421;-69
2022/03/05 02:38:50;;;;;;;16.20;15.20;;;-0.20;9.20;;;;;;4952977;28;20184;-69
2022/03/05 02:41:18;;;;;;;16.50;15.45;;;-0.30;9.00;;;;;;4953679;28;20180;-70
2022/03/05 02:43:44;;;;;;;17.23;15.57;;;-0.40;9.30;;;;;;4953667;28;20289;-70
2022/03/05 02:46:10;;;;;;;16.08;15.02;;;-0.40;9.70;;;;;;4952017;29;20186;-70
2022/03/05 02:48:36;;;;;;;15.50;14.30;;;-0.40;9.60;;;;;;4953290;28;20189;-68
2022/03/05 02:51:02;;;;;;;16.33;14.93;;;-0.40;9.70;;;;;;4953836;28;20209;-69
2022/03/05 02:53:29;;;;;;;16.17;15.00;;;-0.30;10.20;;;;;;4953554;28;20178;-69
2022/03/05 02:55:55;;;;;;;17.00;15.70;;;-0.20;9.90;;;;;;4953385;28;20199;-68
2022/03/05 02:58:20;;;;;;;16.90;15.80;;;-0.10;10.10;;;;;;4953680;28;20187;-69
2022/03/05 03:00:46;;;;;;;18.10;16.63;;;0.00;10.10;;;;;;4968399;28;20186;-68
2022/03/05 03:03:12;;;;;;;18.10;16.30;;;0.00;9.90;;;;;;4953799;28;20173;-68
2022/03/05 03:05:37;;;;;;;16.40;15.13;;;0.00;10.10;;;;;;4953535;28;20209;-68
2022/03/05 03:08:03;;;;;;;16.17;15.00;;;0.10;10.10;;;;;;4952865;28;20573;-68
2022/03/05 03:10:29;;;;;;;16.10;14.80;;;0.10;10.00;;;;;;4953347;28;20275;-69
2022/03/05 03:12:55;;;;;;;17.10;15.60;;;0.10;9.90;;;;;;4953510;28;20407;-68
2022/03/05 03:15:20;;;;;;;18.37;16.93;;;0.10;9.90;;;;;;4953545;28;20782;-69
2022/03/05 03:17:48;;;;;;;17.60;16.20;;;0.20;9.80;;;;;;4948464;28;20233;-68
2022/03/05 03:20:17;;;;;;;18.50;16.45;;;0.20;9.80;;;;;;4953356;28;20191;-69
2022/03/05 03:22:45;;;;;;;17.25;15.85;;;0.20;9.60;;;;;;4952285;29;20253;-69
2022/03/05 03:25:10;;;;;;;17.38;16.08;;;0.20;9.60;;;;;;4951945;28;20614;-68
2022/03/05 03:27:36;;;;;;;17.63;16.43;;;0.20;9.50;;;;;;4953163;28;20211;-68
2022/03/05 03:30:04;;;;;;;17.20;15.90;;;0.20;9.50;;;;;;4953398;28;20659;-69
2022/03/05 03:32:29;;;;;;;17.30;15.85;;;0.20;9.30;;;;;;4953344;28;20175;-69
2022/03/05 03:34:55;;;;;;;16.77;15.63;;;0.20;9.00;;;;;;4952940;28;20276;-69
2022/03/05 03:37:20;;;;;;;17.13;15.87;;;0.30;8.60;;;;;;4953005;28;20195;-68
2022/03/05 03:39:46;;;;;;;17.93;16.47;;;0.30;8.60;;;;;;4952033;28;20198;-69
2022/03/05 03:42:12;;;;;;;18.33;17.03;;;0.30;8.60;;;;;;4952047;28;20194;-69
2022/03/05 03:44:37;;;;;;;17.30;15.80;;;0.30;8.60;;;;;;4953402;28;20206;-69
2022/03/05 03:47:04;;;;;;;18.03;16.50;;;0.30;8.60;;;;;;4953052;28;20210;-69
2022/03/05 03:49:29;;;;;;;17.20;15.80;;;0.30;8.60;;;;;;4953001;28;20230;-70
2022/03/05 03:51:55;;;;;;;16.80;15.43;;;0.20;8.80;;;;;;4951738;28;20589;-69
2022/03/05 03:54:20;;;;;;;17.97;16.27;;;0.20;8.80;;;;;;4953252;28;20225;-69
2022/03/05 03:56:46;;;;;;;18.37;16.70;;;0.20;8.60;;;;;;4953091;28;20300;-69
2022/03/05 03:59:12;;;;;;;18.60;16.97;;;0.20;8.80;;;;;;4953041;28;20210;-71
2022/03/05 04:01:38;;;;;;;17.20;15.85;;;0.20;8.60;;;;;;4953899;28;20190;-70
2022/03/05 04:04:03;;;;;;;18.10;16.57;;;0.00;9.30;;;;;;4952314;29;20214;-69
2022/03/05 04:08:41;;;;;;;18.03;16.57;;;0.00;9.30;;;;;;4952365;28;20209;-69
2022/03/05 04:09:14;;;;;;;18.85;16.95;;;0.10;9.50;;;;;;4956355;28;20224;-69
2022/03/05 04:11:40;;;;;;;18.13;16.80;;;0.00;9.70;;;;;;4957556;28;20664;-70
2022/03/05 04:14:05;;;;;;;18.27;16.77;;;0.10;10.10;;;;;;4956399;28;20583;-69
2022/03/05 04:16:31;;;;;;;19.57;18.10;;;0.10;10.80;;;;;;4956189;28;20266;-69
2022/03/05 04:18:56;;;;;;;19.13;17.57;;;0.10;10.40;;;;;;4956195;28;20182;-70
2022/03/05 04:21:22;;;;;;;21.17;19.10;;;0.10;10.60;;;;;;4955980;28;20666;-69
2022/03/05 04:23:47;;;;;;;20.87;19.17;;;0.10;11.10;;;;;;4956201;28;20692;-69
2022/03/05 04:26:13;;;;;;;22.17;20.07;;;0.10;11.30;;;;;;4954851;28;20263;-69
2022/03/05 04:28:38;;;;;;;22.20;19.73;;;0.10;11.40;;;;;;4954297;28;20179;-70
2022/03/05 04:31:04;;;;;;;20.70;18.90;;;0.00;11.60;;;;;;4956516;28;20182;-69
2022/03/05 04:33:30;;;;;;;20.48;18.63;;;0.00;12.00;;;;;;4955583;28;20482;-69
2022/03/05 04:35:56;;;;;;;22.00;18.30;;;0.00;12.10;;;;;;4953330;29;20595;-70
2022/03/05 04:38:21;;;;;;;22.33;20.33;;;0.00;12.10;;;;;;4955607;28;20185;-71
2022/03/05 04:40:47;;;;;;;20.97;18.90;;;0.00;12.10;;;;;;4955989;28;20180;-71
2022/03/05 04:43:12;;;;;;;21.10;19.00;;;0.00;12.30;;;;;;4956042;28;20171;-71
2022/03/05 04:45:40;;;;;;;21.07;18.93;;;-0.10;12.60;;;;;;4955868;28;20205;-70
2022/03/05 04:48:05;;;;;;;22.33;20.13;;;-0.10;12.70;;;;;;4955300;28;20296;-70
2022/03/05 04:50:31;;;;;;;22.00;19.60;;;-0.10;12.70;;;;;;4956011;28;20225;-72
2022/03/05 04:52:57;;;;;;;20.00;18.10;;;-0.20;12.60;;;;;;4956227;28;20175;-71
2022/03/05 04:55:22;;;;;;;21.07;19.20;;;-0.10;12.60;;;;;;4955984;28;20692;-71
2022/03/05 04:57:48;;;;;;;20.47;18.60;;;-0.10;12.60;;;;;;4954945;29;20194;-71
2022/03/05 05:00:14;;;;;;;20.07;18.27;;;-0.30;12.90;;;;;;4955946;28;20178;-71
2022/03/05 05:02:39;;;;;;;21.23;19.20;;;-0.30;13.00;;;;;;4955668;28;20178;-71
2022/03/05 05:05:05;;;;;;;21.73;19.53;;;-0.30;13.10;;;;;;4953458;29;20453;-70
2022/03/05 05:07:31;;;;;;;21.45;19.50;;;-0.30;13.20;;;;;;4955260;28;20358;-70
2022/03/05 05:09:57;;;;;;;22.25;19.88;;;-0.50;13.50;;;;;;4955315;28;20183;-71
2022/03/05 05:12:23;;;;;;;21.30;19.40;;;-0.80;14.10;;;;;;4955722;28;20640;-70
2022/03/05 05:14:48;;;;;;;21.20;19.27;;;-0.90;14.30;;;;;;4955306;28;20193;-70
2022/03/05 05:17:14;;;;;;;18.73;17.23;;;-0.90;14.10;;;;;;4953674;28;20271;-70
2022/03/05 05:19:40;;;;;;;20.00;18.10;;;-0.90;14.10;;;;;;4954483;28;20186;-71
2022/03/05 05:22:06;;;;;;;19.30;17.07;;;-0.90;14.00;;;;;;4955169;28;20260;-71
2022/03/05 05:24:34;;;;;;;20.85;18.88;;;-0.90;14.60;;;;;;4953810;29;20234;-70
2022/03/05 05:27:01;;;;;;;21.50;19.25;;;-0.80;14.20;;;;;;4954754;28;20668;-70
2022/03/05 05:29:27;;;;;;;20.05;18.42;;;-0.90;14.30;;;;;;4954965;28;20515;-70
2022/03/05 05:31:55;;;;;;;19.90;17.95;;;-0.90;14.30;;;;;;4953781;29;20185;-70
2022/03/05 05:34:21;;;;;;;20.50;18.42;;;-1.10;14.80;;;;;;4954076;28;20248;-70
2022/03/05 05:36:46;;;;;;;19.80;17.77;;;-1.10;14.60;;;;;;4954871;28;20178;-70
2022/03/05 05:39:12;;;;;;;20.30;18.23;;;-1.10;14.50;;;;;;4954997;28;20178;-70
2022/03/05 05:41:39;;;;;;;19.33;17.50;;;-1.10;14.50;;;;;;4954867;28;20178;-70
2022/03/05 05:44:06;;;;;;;22.45;20.27;;;-1.20;14.90;;;;;;4954716;28;20190;-70
2022/03/05 05:46:32;;;;;;;20.13;18.38;;;-1.30;15.50;;;;;;4954536;28;20671;-71
2022/03/05 05:48:58;;;;;;;20.00;17.88;;;-1.20;15.60;;;;;;4953899;28;20192;-71
2022/03/05 05:51:28;;;;;;;20.10;18.30;;;-1.20;15.60;;;;;;4954541;28;20243;-69
2022/03/05 05:53:55;;;;;;;19.83;17.92;;;-1.20;15.80;;;;;;4954257;28;20426;-70
2022/03/05 05:56:20;;;;;;;20.83;18.88;;;-1.30;15.70;;;;;;4954653;28;20185;-69
2022/03/05 05:58:48;;;;;;;19.37;17.43;;;-1.30;15.80;;;;;;4954330;28;20178;-69
2022/03/05 06:01:14;;;;;;;20.40;18.50;;;-1.30;15.60;;;;;;4954564;28;20615;-69
2022/03/05 06:03:39;;;;;;;20.30;18.30;;;-1.30;16.10;;;;;;4954236;28;20281;-69
2022/03/05 06:06:05;;;;;;;21.67;19.07;;;-1.30;16.10;;;;;;4954373;28;20746;-69
2022/03/05 06:08:30;;;;;;;21.00;19.00;;;-1.40;16.10;;;;;;4954117;28;20213;-69
2022/03/05 06:10:57;;;;;;;20.80;18.80;;;-1.70;16.60;;;;;;4954331;28;20185;-69
2022/03/05 06:13:23;;;;;;;20.73;18.83;;;-1.70;16.70;;;;;;4954218;28;20229;-69
2022/03/05 06:15:48;;;;;;;18.80;17.20;;;-1.70;16.40;;;;;;4954135;28;20680;-69
2022/03/05 06:18:14;;;;;;;20.63;18.50;;;-1.50;16.40;;;;;;4953430;28;20931;-69
2022/03/05 06:20:39;;;;;;;17.80;16.20;;;-1.50;16.30;;;;;;4952835;29;20185;-69
2022/03/05 06:23:05;;;;;;;19.17;17.33;;;-1.40;16.10;;;;;;4954285;28;20213;-69
2022/03/05 06:25:31;;;;;;;19.37;17.40;;;-1.30;16.20;;;;;;4950990;29;20360;-69
2022/03/05 06:27:56;;;;;;;20.43;18.73;;;-1.20;16.20;;;;;;4953539;28;20675;-69
2022/03/05 06:30:22;;;;;;;17.90;16.50;;;-1.30;16.10;;;;;;4953422;28;20428;-69
2022/03/05 06:32:48;;;;;;;18.27;16.88;;;-1.30;16.10;;;;;;4952378;29;20554;-70
2022/03/05 06:35:14;;;;;;;16.97;15.47;;;-1.30;16.10;;;;;;4952549;29;20227;-70
2022/03/05 06:37:40;;;;;;;18.90;17.23;;;-1.20;16.20;;;;;;4953656;28;20418;-70
2022/03/05 06:40:07;;;;;;;17.90;16.40;;;-1.30;16.50;;;;;;4953779;28;20181;-69
2022/03/05 06:42:32;;;;;;;21.05;18.90;;;-1.00;17.30;;;;;;4952575;29;20192;-69
2022/03/05 06:44:58;;;;;;;18.33;16.73;;;-0.60;16.60;;;;;;4953958;28;20576;-69
2022/03/05 06:47:24;;;;;;;19.57;17.77;;;-0.20;15.50;;;;;;4953448;28;20567;-70
2022/03/05 06:49:49;;;;;;;21.10;17.00;;;0.10;13.90;;;;;;4953545;28;20555;-69
2022/03/05 06:52:15;;;;;;;18.43;16.60;;;0.20;13.70;;;;;;4953794;28;20726;-69
2022/03/05 06:54:41;;;;;;;19.73;18.10;;;0.30;13.40;;;;;;4952334;29;20221;-68
2022/03/05 06:57:07;;;;;;;19.67;18.08;;;0.40;13.00;;;;;;4953426;28;20465;-69
2022/03/05 06:59:33;;;;;;;19.45;17.75;;;0.40;12.90;;;;;;4953441;28;20669;-69
2022/03/05 07:01:59;;;;;;;17.70;16.37;;;0.50;12.60;;;;;;4953347;28;20234;-69
2022/03/05 07:04:25;;;;;;;20.23;18.53;;;0.60;12.20;;;;;;4953608;28;20501;-69
2022/03/05 07:06:50;;;;;;;18.73;17.33;;;0.60;12.40;;;;;;4953308;28;20694;-71
2022/03/05 07:09:16;;;;;;;19.20;17.67;;;0.50;12.70;;;;;;4953403;28;20657;-69
2022/03/05 07:11:41;;;;;;;20.03;18.20;;;0.50;12.60;;;;;;4953657;28;20554;-69
2022/03/05 07:14:07;;;;;;;19.40;17.90;;;0.40;12.90;;;;;;4952230;29;20215;-70
2022/03/05 07:16:33;;;;;;;19.83;18.10;;;0.40;13.00;;;;;;4951260;29;20192;-70
2022/03/05 07:18:58;;;;;;;22.47;20.33;;;0.40;13.00;;;;;;4953488;28;20416;-71
2022/03/05 07:21:24;;;;;;;21.23;18.50;;;0.50;13.30;;;;;;4952119;28;20290;-69
2022/03/05 07:23:49;;;;;;;20.17;18.40;;;0.60;13.10;;;;;;4953488;28;20191;-70
2022/03/05 07:26:18;;;;;;;21.00;19.13;;;0.60;13.10;;;;;;4952174;28;20188;-70
2022/03/05 07:28:45;;;;;;;21.83;19.77;;;0.60;13.10;;;;;;4953196;28;20192;-70
2022/03/05 07:31:11;;;;;;;21.27;19.20;;;0.70;13.20;;;;;;4953029;28;20665;-70
2022/03/05 07:33:36;;;;;;;19.73;18.03;;;0.70;13.20;;;;;;4953677;28;20187;-71
2022/03/05 07:36:04;;;;;;;20.10;18.40;;;0.80;13.20;;;;;;4953366;28;20629;-69
2022/03/05 07:38:33;;;;;;;22.10;20.25;;;0.90;13.30;;;;;;4953022;28;20640;-70
2022/03/05 07:40:58;;;;;;;21.17;19.25;;;0.90;12.20;;;;;;4953814;28;20199;-70
2022/03/05 07:43:24;;;;;;;21.50;19.77;;;1.10;13.40;;;;;;4956895;28;20193;-70
2022/03/05 07:45:50;;;;;;;19.57;18.07;;;1.10;12.80;;;;;;4956527;28;20218;-70
2022/03/05 07:48:19;;;;;;;23.03;20.40;;;0.90;13.30;;;;;;4955117;29;20252;-71
2022/03/05 07:50:46;;;;;;;20.00;18.40;;;0.70;12.80;;;;;;4957014;28;20791;-71
2022/03/05 07:53:12;;;;;;;22.80;20.92;;;0.60;13.40;;;;;;4956737;28;20189;-71
2022/03/05 07:55:37;;;;;;;23.70;21.83;;;0.70;13.20;;;;;;4957216;28;20560;-72
2022/03/05 07:58:03;;;;;;;23.40;21.17;;;0.60;13.10;;;;;;4952792;28;20534;-70
2022/03/05 08:00:29;;;;;;;24.37;20.90;;;0.80;13.30;;;;;;4953523;28;20443;-71
2022/03/05 08:02:54;;;;;;;20.40;18.73;;;0.90;13.30;;;;;;4954370;28;20205;-70
2022/03/05 08:05:20;;;;;;;23.80;21.40;;;0.80;13.20;;;;;;4956790;28;20204;-70
2022/03/05 08:07:46;;;;;;;22.17;20.17;;;1.00;13.40;;;;;;4952571;28;20217;-70
2022/03/05 08:10:11;;;;;;;24.50;20.80;;;1.20;13.20;;;;;;4953401;28;20183;-69
2022/03/05 08:12:37;;;;;;;21.63;20.03;;;1.30;13.00;;;;;;4945039;28;20280;-70
2022/03/05 08:15:03;;;;;;;22.67;20.87;;;1.50;12.50;;;;;;4951841;28;20266;-70
2022/03/05 08:17:29;;;;;;;24.45;21.80;;;1.40;12.50;;;;;;4942967;28;20194;-69
2022/03/05 08:19:55;;;;;;;21.27;19.30;;;1.60;12.50;;;;;;4933151;29;20541;-70
2022/03/05 08:22:21;;;;;;;24.90;22.50;;;1.70;12.50;;;;;;4934050;29;20198;-70
2022/03/05 08:24:47;;;;;;;23.55;21.27;;;1.60;12.30;;;;;;4939209;29;20212;-70
2022/03/05 08:27:12;;;;;;;24.67;22.23;;;1.70;12.30;;;;;;4956817;28;20216;-71
2022/03/05 08:29:38;;;;;;;22.33;20.33;;;1.90;12.20;;;;;;4949689;29;20213;-69
2022/03/05 08:32:04;;;;;;;21.47;19.60;;;2.10;11.90;;;;;;4952199;28;20192;-69
2022/03/05 08:34:29;;;;;;;21.27;19.15;;;1.90;11.90;;;;;;4952463;28;20776;-70
2022/03/05 08:36:55;;;;;;;21.77;19.67;;;2.10;12.10;;;;;;4951975;28;20184;-69
2022/03/05 08:39:20;;;;;;;20.93;19.17;;;2.00;11.70;;;;;;4950289;29;20288;-71
2022/03/05 08:41:47;;;;;;;20.17;18.47;;;2.10;12.30;;;;;;4948833;28;20600;-69
2022/03/05 08:44:13;;;;;;;20.73;19.13;;;2.20;10.40;;;;;;4951509;29;20217;-70
2022/03/05 08:46:39;;;;;;;22.90;20.85;;;2.30;11.00;;;;;;4955721;28;20209;-71
2022/03/05 08:49:05;;;;;;;21.30;19.40;;;2.20;10.70;;;;;;4955577;28;20182;-70
2022/03/05 08:51:30;;;;;;;21.07;18.93;;;2.40;9.90;;;;;;4954159;28;20931;-70
2022/03/05 08:53:56;;;;;;;20.40;18.20;;;2.60;9.00;;;;;;4955362;28;20632;-70
2022/03/05 08:56:21;;;;;;;18.33;16.93;;;2.60;9.20;;;;;;4955110;28;20194;-75
2022/03/05 08:58:47;;;;;;;19.83;18.23;;;2.80;9.20;;;;;;4954435;29;20177;-70
2022/03/05 09:01:13;;;;;;;17.87;16.20;;;2.90;7.40;;;;;;4955697;28;20241;-70
2022/03/05 09:03:38;;;;;;;18.37;16.87;;;3.20;8.00;;;;;;4955484;28;20185;-71
2022/03/05 09:06:04;;;;;;;19.97;18.37;;;3.40;6.40;;;;;;4954084;29;20206;-70
2022/03/05 09:08:30;;;;;;;19.17;17.45;;;3.30;7.10;;;;;;4955231;28;20201;-71
2022/03/05 09:10:55;;;;;;;17.93;16.60;;;3.40;6.20;;;;;;4953783;29;20239;-72
2022/03/05 09:13:21;;;;;;;18.00;16.50;;;3.60;5.70;;;;;;4953923;29;20182;-69
2022/03/05 09:15:47;;;;;;;16.57;15.23;;;3.70;5.10;;;;;;4955387;28;20202;-72
2022/03/05 09:18:12;;;;;;;16.60;15.43;;;3.90;4.50;;;;;;4955055;28;20656;-71
2022/03/05 09:20:38;;;;;;;20.10;18.30;;;4.00;4.70;;;;;;4955348;28;20182;-69
2022/03/05 09:23:04;;;;;;;19.10;17.87;;;4.00;3.90;;;;;;4955026;28;20209;-70
2022/03/05 09:25:30;;;;;;;16.30;15.20;;;3.70;4.00;;;;;;4953163;29;20210;-69
2022/03/05 09:27:56;;;;;;;15.53;14.40;;;3.60;5.00;;;;;;4954786;28;20809;-71
2022/03/05 09:30:22;;;;;;;17.67;16.45;;;3.70;4.50;;;;;;4954985;28;20170;-71
2022/03/05 09:32:47;;;;;;;17.30;16.00;;;3.90;3.80;;;;;;4955015;28;20430;-72
2022/03/05 09:35:13;;;;;;;18.23;16.80;;;3.90;2.90;;;;;;4954696;28;20214;-72
2022/03/05 09:37:38;;;;;;;15.20;14.30;;;4.00;2.70;;;;;;4953383;29;20272;-70
2022/03/05 09:40:05;;;;;;;14.83;13.90;;;4.10;2.70;;;;;;4952902;29;20660;-74
2022/03/05 09:42:32;;;;;;;16.67;15.35;;;4.20;2.50;;;;;;4954968;28;20665;-76
2022/03/05 09:44:57;;;;;;;16.30;15.05;;;4.30;2.20;;;;;;4954431;28;20304;-70
2022/03/05 09:47:23;;;;;;;17.87;16.30;;;4.20;2.00;;;;;;4954550;28;20237;-70
2022/03/05 09:49:49;;;;;;;16.57;15.40;;;4.30;3.30;;;;;;4953682;28;20201;-70
2022/03/05 09:52:14;;;;;;;19.40;17.70;;;4.30;2.30;;;;;;4947298;28;20529;-71
2022/03/05 09:54:40;;;;;;;15.83;14.60;;;4.50;2.40;;;;;;4942958;29;20198;-70
2022/03/05 09:57:11;;;;;;;15.00;14.10;;;4.60;2.50;;;;;;4934918;29;20661;-70
2022/03/05 09:59:38;;;;;;;17.15;15.90;;;4.70;2.30;;;;;;4941778;29;20502;-70
2022/03/05 10:02:05;;;;;;;17.52;16.10;;;4.70;2.10;;;;;;4935321;29;20179;-69
2022/03/05 10:04:31;;;;;;;18.02;16.73;;;4.70;1.80;;;;;;4944528;29;20207;-71
2022/03/05 10:07:14;;;;;;;16.90;15.80;;;4.80;1.60;;;;;;4953997;28;20261;-69
2022/03/05 10:09:47;;;;;;;19.17;17.42;;;4.80;1.00;;;;;;4954474;28;20565;-68
2022/03/05 10:12:33;;;;;;;17.25;16.05;;;4.80;1.40;;;;;;4945114;28;20183;-70
2022/03/05 10:15:07;;;;;;;17.30;16.00;;;5.00;1.20;;;;;;4968599;28;20318;-70
2022/03/05 10:17:52;;;;;;;18.13;16.85;;;5.10;1.30;;;;;;4953827;28;20174;-71
2022/03/05 10:20:19;;;;;;;17.10;15.85;;;5.30;1.30;;;;;;4954335;28;20181;-71
2022/03/05 10:23:06;;;;;;;16.58;15.48;;;5.30;1.00;;;;;;4953976;28;20257;-69
2022/03/05 10:25:35;;;;;;;18.27;16.40;;;5.30;1.00;;;;;;4952967;29;20245;-70
2022/03/05 10:28:03;;;;;;;16.30;15.40;;;5.40;1.00;;;;;;4953432;28;20211;-68
2022/03/05 10:30:34;;;;;;;16.60;15.52;;;5.40;1.00;;;;;;4952761;29;20176;-69
2022/03/05 10:32:59;;;;;;;17.13;16.02;;;5.20;1.00;;;;;;4953989;28;20233;-71
2022/03/05 10:35:25;;;;;;;16.57;15.50;;;5.30;1.00;;;;;;4974760;23;20319;-70
2022/03/05 10:37:51;;;;;;;17.23;16.23;;;5.40;1.00;;;;;;4952801;29;20266;-70
2022/03/05 10:40:29;;;;;;;16.38;15.05;;;5.30;1.00;;;;;;4953363;29;20185;-71
2022/03/05 10:42:58;;;;;;;15.75;14.75;;;5.10;1.00;;;;;;4968978;28;20194;-71
2022/03/05 10:45:24;;;;;;;16.52;15.68;;;5.20;1.00;;;;;;4961672;28;20289;-71
2022/03/05 10:47:50;;;;;;;14.63;13.77;;;5.30;1.00;;;;;;4971716;28;20348;-70
2022/03/05 10:50:30;;;;;;;15.80;14.90;;;5.30;1.00;;;;;;4973365;28;20522;-71
2022/03/05 10:53:01;;;;;;;15.90;14.95;;;5.30;1.00;;;;;;4973421;28;20155;-70
2022/03/05 10:55:37;;;;;;;15.55;14.55;;;5.50;1.00;;;;;;4973525;28;20191;-70
2022/03/05 10:58:02;;;;;;;16.90;15.73;;;5.60;1.00;;;;;;4973472;28;20224;-70
2022/03/05 11:00:31;;;;;;;15.63;14.73;;;5.70;1.00;;;;;;4973178;28;20180;-71
2022/03/05 11:03:00;;;;;;;17.15;16.05;;;5.80;1.00;;;;;;4972761;28;20211;-71
2022/03/05 11:05:26;;;;;;;14.27;13.48;;;5.80;1.00;;;;;;4972616;28;20711;-71
2022/03/05 11:07:54;;;;;;;15.70;14.80;;;5.40;1.00;;;;;;4972771;28;20203;-71
2022/03/05 11:10:22;;;;;;;16.60;15.38;;;5.40;1.00;;;;;;4973086;28;20915;-71
2022/03/05 11:12:51;;;;;;;15.82;14.93;;;5.40;1.00;;;;;;4973226;28;20185;-72
2022/03/05 11:15:20;;;;;;;15.77;14.80;;;5.50;1.00;;;;;;4972731;28;20194;-72
2022/03/05 11:17:49;;;;;;;15.63;14.80;;;5.60;1.00;;;;;;4976785;28;20183;-72
2022/03/05 11:20:15;;;;;;;17.05;15.85;;;5.90;1.00;;;;;;4976793;28;20226;-71
2022/03/05 11:22:44;;;;;;;15.50;14.70;;;6.00;1.00;;;;;;4975577;28;20230;-72
2022/03/05 11:25:15;;;;;;;14.47;13.87;;;6.20;1.00;;;;;;4977457;28;20196;-73
2022/03/05 11:28:01;;;;;;;15.40;14.30;;;6.40;1.00;;;;;;4957147;28;20480;-72
2022/03/05 11:30:28;;;;;;;16.40;15.50;;;6.50;1.00;;;;;;4959098;28;20166;-70
2022/03/05 11:32:54;;;;;;;17.10;15.90;;;6.40;1.00;;;;;;4976405;28;20427;-70
2022/03/05 11:35:29;;;;;;;15.55;14.65;;;6.20;1.00;;;;;;4975274;28;20466;-70
2022/03/05 11:37:55;;;;;;;16.42;15.43;;;6.00;1.00;;;;;;4960146;28;20186;-69
2022/03/05 11:40:42;;;;;;;15.63;14.73;;;5.90;1.00;;;;;;4975998;28;20229;-69
2022/03/05 11:43:19;;;;;;;15.55;14.45;;;5.90;1.00;;;;;;4961259;28;20207;-69
2022/03/05 11:46:04;;;;;;;15.55;14.85;;;5.90;1.00;;;;;;4968633;28;20203;-70
2022/03/05 11:48:31;;;;;;;15.02;14.23;;;5.80;1.00;;;;;;4975674;28;20207;-70
2022/03/05 11:51:07;;;;;;;16.67;15.65;;;6.00;1.00;;;;;;4975067;28;20189;-70
2022/03/05 11:53:32;;;;;;;16.02;14.90;;;6.10;1.00;;;;;;4976133;28;20206;-69
2022/03/05 11:56:22;;;;;;;15.87;15.03;;;6.10;1.00;;;;;;4975881;28;20204;-69
2022/03/05 11:58:47;;;;;;;16.52;15.40;;;5.90;1.00;;;;;;4991003;28;20249;-69
2022/03/05 12:01:32;;;;;;;16.37;15.37;;;5.80;1.00;;;;;;4976135;28;20188;-69
2022/03/05 12:04:03;;;;;;;16.02;15.23;;;6.10;1.00;;;;;;4974420;28;20703;-69
2022/03/05 12:06:40;;;;;;;16.50;15.50;;;6.20;1.00;;;;;;4975526;28;20310;-70
2022/03/05 12:09:06;;;;;;;17.90;16.67;;;6.40;1.00;;;;;;4975552;28;20461;-69
2022/03/05 12:11:35;;;;;;;17.40;16.23;;;6.40;1.00;;;;;;4975990;28;20434;-71
2022/03/05 12:14:01;;;;;;;18.17;17.07;;;6.40;1.00;;;;;;4976008;28;20268;-69
2022/03/05 12:16:28;;;;;;;18.53;17.37;;;6.30;1.00;;;;;;4975186;28;20455;-71
2022/03/05 12:18:59;;;;;;;16.45;15.52;;;6.40;1.00;;;;;;4973954;28;20190;-69
2022/03/05 12:21:25;;;;;;;17.07;16.00;;;6.40;1.00;;;;;;4975426;28;20184;-69
2022/03/05 12:24:00;;;;;;;19.43;18.03;;;6.60;1.00;;;;;;4975520;28;20432;-69
2022/03/05 12:26:43;;;;;;;19.13;17.90;;;6.50;1.00;;;;;;4974626;28;20458;-70
2022/03/05 12:29:10;;;;;;;17.10;16.10;;;6.60;1.00;;;;;;4975526;28;20429;-69
2022/03/05 12:31:45;;;;;;;17.10;15.67;;;6.70;1.00;;;;;;4975464;28;20515;-70
2022/03/05 12:34:11;;;;;;;20.20;18.60;;;6.80;1.00;;;;;;4975197;28;20458;-71
2022/03/05 12:36:43;;;;;;;18.73;17.43;;;6.90;1.00;;;;;;4974886;28;20465;-70
2022/03/05 12:39:10;;;;;;;17.80;16.70;;;7.00;1.00;;;;;;4967751;28;20426;-69